createdAt,value
2019-04-09T00:00:24.871Z,42.30
2019-04-09T00:03:11.226Z,42.20
2019-04-09T00:05:40.184Z,42.10
2019-04-09T00:08:09.774Z,42.20
2019-04-09T00:10:39.079Z,42.30
2019-04-09T00:13:07.955Z,42.80
2019-04-09T00:15:38.027Z,43.20
2019-04-09T00:18:08.071Z,43.50
2019-04-09T00:20:37.372Z,43.80
2019-04-09T00:23:06.168Z,43.80
2019-04-09T00:25:35.053Z,44.10
2019-04-09T00:28:03.962Z,44.30
2019-04-09T00:30:33.397Z,43.70
2019-04-09T00:33:02.391Z,44.40
2019-04-09T00:35:31.260Z,45.80
2019-04-09T00:38:00.305Z,45.90
2019-04-09T00:40:29.133Z,45.90
2019-04-09T00:42:59.128Z,45.80
2019-04-09T00:45:28.461Z,44.10
2019-04-09T00:47:57.888Z,44.00
2019-04-09T00:50:27.439Z,44.70
2019-04-09T00:52:56.312Z,45.00
2019-04-09T00:55:25.127Z,45.40
2019-04-09T00:57:53.940Z,45.00
2019-04-09T01:00:42.890Z,44.70
2019-04-09T01:03:10.261Z,45.20
2019-04-09T01:05:39.898Z,43.40
2019-04-09T01:08:09.101Z,43.80
2019-04-09T01:10:38.814Z,43.50
2019-04-09T01:13:08.895Z,42.60
2019-04-09T01:15:38.104Z,43.90
2019-04-09T01:18:08.290Z,46.60
2019-04-09T01:20:38.063Z,45.60
2019-04-09T01:23:08.077Z,45.60
2019-04-09T01:25:47.800Z,46.40
2019-04-09T01:28:30.873Z,45.70
2019-04-09T01:31:06.240Z,44.80
2019-04-09T01:33:57.800Z,45.80
2019-04-09T01:36:37.967Z,45.90
2019-04-09T01:39:15.963Z,45.70
2019-04-09T01:42:10.794Z,45.20
2019-04-09T01:44:54.569Z,44.00
2019-04-09T01:47:51.353Z,45.20
2019-04-09T01:50:39.641Z,47.30
2019-04-09T01:53:26.424Z,49.40
2019-04-09T01:56:09.264Z,50.00
2019-04-09T01:59:04.132Z,50.50
2019-04-09T02:01:52.802Z,49.30
2019-04-09T02:04:44.369Z,48.50
2019-04-09T02:07:39.041Z,48.00
2019-04-09T02:10:36.440Z,47.50
2019-04-09T02:13:30.202Z,47.70
2019-04-09T02:16:21.105Z,48.70
2019-04-09T02:19:05.538Z,48.00
2019-04-09T02:21:52.208Z,48.00
2019-04-09T02:24:39.176Z,48.20
2019-04-09T02:27:38.412Z,47.40
2019-04-09T02:30:19.232Z,47.40
2019-04-09T02:33:07.282Z,47.70
2019-04-09T02:35:59.617Z,47.70
2019-04-09T02:38:40.914Z,47.40
2019-04-09T02:41:27.557Z,47.00
2019-04-09T02:44:19.122Z,45.80
2019-04-09T02:47:13.659Z,45.90
2019-04-09T02:49:51.467Z,45.40
2019-04-09T02:52:38.460Z,45.80
2019-04-09T02:55:33.237Z,46.40
2019-04-09T02:58:12.740Z,45.40
2019-04-09T03:00:54.633Z,45.00
2019-04-09T03:03:46.253Z,44.90
2019-04-09T03:06:24.365Z,44.80
2019-04-09T03:09:00.084Z,45.00
2019-04-09T03:11:42.266Z,45.30
2019-04-09T03:14:32.729Z,47.70
2019-04-09T03:17:11.838Z,47.60
2019-04-09T03:20:06.203Z,47.20
2019-04-09T03:23:00.325Z,46.70
2019-04-09T03:25:41.996Z,46.80
2019-04-09T03:28:20.277Z,46.10
2019-04-09T03:31:07.070Z,46.60
2019-04-09T03:33:54.647Z,46.00
2019-04-09T03:36:43.690Z,45.30
2019-04-09T03:39:31.687Z,47.00
2019-04-09T03:42:14.253Z,47.80
2019-04-09T03:45:02.482Z,47.10
2019-04-09T03:47:50.279Z,47.90
2019-04-09T03:50:42.463Z,48.40
2019-04-09T03:53:30.616Z,48.40
2019-04-09T03:56:18.152Z,49.00
2019-04-09T03:59:04.768Z,48.80
2019-04-09T04:02:05.913Z,50.20
2019-04-09T04:04:46.309Z,50.30
2019-04-09T04:07:23.755Z,51.60
2019-04-09T04:10:11.832Z,52.50
2019-04-09T04:13:00.512Z,53.70
2019-04-09T04:15:55.151Z,54.60
2019-04-09T04:18:58.817Z,53.40
2019-04-09T04:21:50.379Z,53.80
2019-04-09T04:24:47.470Z,53.50
2019-04-09T04:27:36.076Z,53.60
2019-04-09T04:30:27.892Z,52.70
2019-04-09T04:33:16.649Z,52.60
2019-04-09T04:36:03.096Z,52.20
2019-04-09T04:38:56.019Z,54.70
2019-04-09T04:41:44.943Z,54.90
2019-04-09T04:44:26.212Z,53.70
2019-04-09T04:47:13.142Z,52.50
2019-04-09T04:50:02.520Z,52.80
2019-04-09T04:52:48.027Z,52.60
2019-04-09T04:55:55.340Z,52.40
2019-04-09T04:58:47.700Z,51.80
2019-04-09T05:01:34.745Z,51.70
2019-04-09T05:04:15.378Z,51.40
2019-04-09T05:07:03.495Z,51.50
2019-04-09T05:09:52.377Z,51.50
2019-04-09T05:12:47.072Z,50.60
2019-04-09T05:15:28.780Z,51.20
2019-04-09T05:18:15.572Z,52.10
2019-04-09T05:21:02.174Z,52.90
2019-04-09T05:23:54.089Z,52.40
2019-04-09T05:26:34.764Z,52.40
2019-04-09T05:29:22.092Z,51.60
2019-04-09T05:32:19.253Z,51.20
2019-04-09T05:35:14.723Z,51.70
2019-04-09T05:38:15.593Z,51.80
2019-04-09T05:40:59.454Z,52.80
2019-04-09T05:43:54.521Z,53.30
2019-04-09T05:46:33.184Z,54.00
2019-04-09T05:49:16.308Z,54.00
2019-04-09T05:51:59.657Z,54.90
2019-04-09T05:54:37.839Z,55.00
2019-04-09T05:57:44.484Z,54.70
2019-04-09T06:00:28.338Z,54.20
2019-04-09T06:03:06.049Z,56.10
2019-04-09T06:05:57.426Z,56.00
2019-04-09T06:08:38.137Z,55.60
2019-04-09T06:11:07.565Z,54.20
2019-04-09T06:13:36.520Z,54.20
2019-04-09T06:16:05.779Z,54.30
2019-04-09T06:18:34.854Z,54.50
2019-04-09T06:21:05.560Z,55.40
2019-04-09T06:23:34.373Z,54.30
2019-04-09T06:26:04.284Z,54.40
2019-04-09T06:28:34.297Z,53.30
2019-04-09T06:31:04.278Z,54.50
2019-04-09T06:33:49.586Z,54.00
2019-04-09T06:36:36.136Z,54.50
2019-04-09T06:39:25.036Z,54.50
2019-04-09T06:42:00.339Z,54.50
2019-04-09T06:44:49.003Z,54.60
2019-04-09T06:47:35.006Z,54.10
2019-04-09T06:50:09.536Z,52.70
2019-04-09T06:52:47.098Z,52.10
2019-04-09T06:55:22.834Z,52.40
2019-04-09T06:58:10.101Z,52.00
2019-04-09T07:00:58.358Z,51.20
2019-04-09T07:03:46.659Z,51.50
2019-04-09T07:06:24.798Z,50.70
2019-04-09T07:09:15.754Z,50.70
2019-04-09T07:12:13.442Z,50.30
2019-04-09T07:14:55.109Z,50.50
2019-04-09T07:17:45.522Z,50.70
2019-04-09T07:20:26.526Z,49.90
2019-04-09T07:23:06.529Z,50.00
2019-04-09T07:25:54.274Z,50.50
2019-04-09T07:28:32.295Z,50.40
2019-04-09T07:31:10.987Z,50.20
2019-04-09T07:34:07.792Z,49.60
2019-04-09T07:36:44.501Z,48.80
2019-04-09T07:39:39.646Z,48.80
2019-04-09T07:42:27.944Z,49.80
2019-04-09T07:45:31.590Z,47.20
2019-04-09T07:48:17.555Z,47.00
2019-04-09T07:51:05.984Z,48.40
2019-04-09T07:53:55.044Z,46.90
2019-04-09T07:56:32.822Z,46.50
2019-04-09T07:59:07.678Z,46.40
2019-04-09T08:02:02.163Z,46.70
2019-04-09T08:04:41.095Z,46.30
2019-04-09T08:07:34.702Z,45.90
2019-04-09T08:10:24.196Z,45.30
2019-04-09T08:13:33.458Z,45.10
2019-04-09T08:16:28.620Z,45.30
2019-04-09T08:19:20.675Z,45.80
2019-04-09T08:21:59.126Z,43.50
2019-04-09T08:24:48.237Z,43.40
2019-04-09T08:27:27.751Z,43.20
2019-04-09T08:30:25.093Z,42.30
2019-04-09T08:33:28.672Z,42.40
2019-04-09T08:36:16.058Z,42.80
2019-04-09T08:39:00.385Z,43.10
2019-04-09T08:41:40.657Z,42.50
2019-04-09T08:44:17.327Z,40.40
2019-04-09T08:47:00.185Z,39.20
2019-04-09T08:49:45.806Z,39.30
2019-04-09T08:52:27.399Z,40.40
2019-04-09T08:55:08.188Z,39.60
2019-04-09T08:57:47.072Z,39.60
2019-04-09T09:01:21.403Z,38.40
2019-04-09T09:03:20.688Z,37.60
2019-04-09T09:06:01.920Z,37.40
2019-04-09T09:08:50.620Z,37.20
2019-04-09T09:11:34.970Z,38.80
2019-04-09T09:14:22.525Z,38.80
2019-04-09T09:17:11.041Z,38.00
2019-04-09T09:20:03.869Z,36.40
2019-04-09T09:22:49.980Z,34.90
2019-04-09T09:25:47.479Z,35.60
2019-04-09T09:28:42.762Z,37.50
2019-04-09T09:31:24.424Z,36.50
2019-04-09T09:34:03.237Z,36.70
2019-04-09T09:37:09.738Z,37.10
2019-04-09T09:39:53.592Z,37.50
2019-04-09T09:42:32.168Z,36.80
2019-04-09T09:45:09.740Z,35.80
2019-04-09T09:47:57.298Z,37.60
2019-04-09T09:50:44.984Z,37.10
2019-04-09T09:53:32.688Z,36.20
2019-04-09T09:56:10.862Z,35.20
2019-04-09T09:59:05.321Z,34.00
2019-04-09T10:02:01.020Z,34.20
2019-04-09T10:04:44.608Z,35.20
2019-04-09T10:07:50.403Z,34.50
2019-04-09T10:10:47.443Z,35.00
2019-04-09T10:13:29.541Z,36.00
2019-04-09T10:16:29.576Z,35.10
2019-04-09T10:19:22.131Z,34.50
2019-04-09T10:22:09.173Z,32.80
2019-04-09T10:24:54.812Z,33.00
2019-04-09T10:27:47.485Z,34.50
2019-04-09T10:30:49.166Z,35.70
2019-04-09T10:33:32.298Z,34.70
2019-04-09T10:36:21.401Z,31.50
2019-04-09T10:39:02.076Z,31.10
2019-04-09T10:41:49.570Z,30.80
2019-04-09T10:44:29.180Z,29.70
2019-04-09T10:47:29.484Z,30.50
2019-04-09T10:50:13.436Z,29.70
2019-04-09T10:52:55.887Z,28.60
2019-04-09T10:55:37.481Z,27.60
2019-04-09T10:58:32.258Z,26.50
2019-04-09T11:01:34.179Z,28.40
2019-04-09T11:04:14.000Z,28.60
2019-04-09T11:07:03.499Z,27.10
2019-04-09T11:09:42.552Z,26.80
2019-04-09T11:12:28.217Z,26.80
2019-04-09T11:15:18.686Z,26.40
2019-04-09T11:18:08.452Z,26.00
2019-04-09T11:21:06.105Z,25.70
2019-04-09T11:23:53.818Z,25.30
2019-04-09T11:26:41.899Z,23.70
2019-04-09T11:29:37.189Z,23.20
2019-04-09T11:32:14.196Z,21.60
2019-04-09T11:34:52.166Z,20.90
2019-04-09T11:37:43.408Z,23.30
2019-04-09T11:40:37.291Z,22.20
2019-04-09T11:43:16.607Z,21.10
2019-04-09T11:46:02.677Z,21.30
2019-04-09T11:48:47.770Z,21.40
2019-04-09T11:51:34.724Z,20.90
2019-04-09T11:54:22.801Z,19.90
2019-04-09T11:57:17.887Z,18.30
2019-04-09T12:00:13.325Z,19.10
2019-04-09T12:02:50.513Z,18.90
2019-04-09T12:05:40.641Z,19.80
2019-04-09T12:08:20.396Z,19.00
2019-04-09T12:11:09.055Z,18.20
2019-04-09T12:13:52.974Z,20.10
2019-04-09T12:16:37.447Z,19.30
2019-04-09T12:19:11.069Z,18.80
2019-04-09T12:21:47.360Z,17.90
2019-04-09T12:24:47.636Z,18.20
2019-04-09T12:27:34.067Z,18.40
2019-04-09T12:30:15.297Z,18.40
2019-04-09T12:33:03.739Z,17.90
2019-04-09T12:35:57.404Z,17.10
2019-04-09T12:38:57.835Z,15.70
2019-04-09T12:41:49.296Z,16.10
2019-04-09T12:44:36.060Z,15.50
2019-04-09T12:47:26.079Z,14.20
2019-04-09T12:50:24.347Z,14.80
2019-04-09T12:53:09.927Z,14.60
2019-04-09T12:55:56.576Z,15.40
2019-04-09T12:58:35.468Z,16.10
2019-04-09T13:01:16.343Z,16.30
2019-04-09T13:04:02.832Z,15.30
2019-04-09T13:06:51.789Z,16.10
2019-04-09T13:09:38.842Z,15.20
2019-04-09T13:12:32.984Z,16.00
2019-04-09T13:15:26.798Z,16.30
2019-04-09T13:18:17.840Z,16.50
2019-04-09T13:21:24.028Z,16.10
2019-04-09T13:24:07.179Z,17.00
2019-04-09T13:26:52.237Z,16.50
2019-04-09T13:29:47.179Z,16.30
2019-04-09T13:32:45.203Z,16.50
2019-04-09T13:35:40.651Z,16.90
2019-04-09T13:38:31.175Z,17.30
2019-04-09T13:41:25.345Z,16.90
2019-04-09T13:44:07.106Z,17.70
2019-04-09T13:46:45.108Z,17.70
2019-04-09T13:49:32.020Z,18.00
2019-04-09T13:52:29.893Z,17.90
2019-04-09T13:55:01.600Z,17.60
2019-04-09T13:57:29.824Z,17.90
2019-04-09T13:59:58.667Z,18.10
2019-04-09T14:02:27.681Z,17.20
2019-04-09T14:05:06.993Z,17.20
2019-04-09T14:07:36.316Z,17.50
2019-04-09T14:10:06.190Z,17.80
2019-04-09T14:12:35.169Z,17.50
2019-04-09T14:15:04.940Z,17.30
2019-04-09T14:17:34.290Z,17.50
2019-04-09T14:20:04.791Z,17.80
2019-04-09T14:22:35.188Z,18.10
2019-04-09T14:25:05.572Z,18.40
2019-04-09T14:27:36.868Z,18.70
2019-04-09T14:30:08.334Z,19.70
2019-04-09T14:32:38.998Z,21.40
2019-04-09T14:35:08.429Z,22.40
2019-04-09T14:37:37.684Z,24.10
2019-04-09T14:40:07.865Z,26.00
2019-04-09T14:42:36.879Z,25.60
2019-04-09T14:45:07.229Z,24.10
2019-04-09T14:47:37.089Z,24.50
2019-04-09T14:50:07.916Z,25.00
2019-04-09T14:52:49.262Z,24.80
2019-04-09T14:55:08.535Z,25.00
2019-04-09T14:57:37.908Z,25.00
2019-04-09T15:00:09.964Z,24.50
2019-04-09T15:02:39.048Z,23.40
2019-04-09T15:05:08.074Z,23.10
2019-04-09T15:07:37.385Z,22.90
2019-04-09T15:10:07.081Z,22.20
2019-04-09T15:12:36.076Z,22.40
2019-04-09T15:15:05.498Z,22.70
2019-04-09T15:17:35.175Z,24.20
2019-04-09T15:20:05.417Z,25.10
2019-04-09T15:22:34.411Z,25.90
2019-04-09T15:25:03.331Z,25.90
2019-04-09T15:27:33.478Z,26.80
2019-04-09T15:30:02.707Z,27.60
2019-04-09T15:32:31.633Z,28.10
2019-04-09T15:35:00.872Z,27.10
2019-04-09T15:37:29.893Z,26.40
2019-04-09T15:39:59.541Z,26.80
2019-04-09T15:42:29.745Z,27.50
2019-04-09T15:45:00.132Z,27.60
2019-04-09T15:47:29.532Z,27.10
2019-04-09T15:49:59.055Z,27.20
2019-04-09T15:52:28.943Z,28.50
2019-04-09T15:54:59.049Z,29.90
2019-04-09T15:57:28.210Z,28.50
2019-04-09T15:59:57.374Z,29.80
2019-04-09T16:02:26.864Z,30.60
2019-04-09T16:04:56.663Z,31.30
2019-04-09T16:07:26.228Z,33.00
2019-04-09T16:09:56.174Z,32.80
2019-04-09T16:12:25.458Z,33.00
2019-04-09T16:14:54.713Z,33.00
2019-04-09T16:17:23.914Z,33.60
2019-04-09T16:19:53.113Z,33.90
2019-04-09T16:22:24.317Z,33.10
2019-04-09T16:24:53.582Z,32.50
2019-04-09T16:27:22.680Z,32.60
2019-04-09T16:29:52.709Z,31.80
2019-04-09T16:32:21.801Z,32.00
2019-04-09T16:34:50.691Z,32.60
2019-04-09T16:37:22.657Z,33.30
2019-04-09T16:39:50.514Z,33.30
2019-04-09T16:42:29.968Z,33.20
2019-04-09T16:44:57.130Z,34.00
2019-04-09T16:47:22.388Z,34.00
2019-04-09T16:49:52.112Z,33.80
2019-04-09T16:52:22.143Z,35.20
2019-04-09T16:54:51.528Z,35.50
2019-04-09T16:57:21.436Z,35.00
2019-04-09T16:59:50.686Z,33.50
2019-04-09T17:02:20.574Z,32.30
2019-04-09T17:04:49.616Z,31.90
2019-04-09T17:07:19.701Z,30.00
2019-04-09T17:09:49.801Z,29.60
2019-04-09T17:12:19.955Z,30.50
2019-04-09T17:14:48.860Z,30.20
2019-04-09T17:17:17.765Z,31.20
2019-04-09T17:19:49.298Z,31.70
2019-04-09T17:22:18.594Z,32.20
2019-04-09T17:24:47.986Z,32.10
2019-04-09T17:27:16.752Z,30.30
2019-04-09T17:29:45.668Z,28.00
2019-04-09T17:32:14.842Z,28.00
2019-04-09T17:34:43.998Z,28.00
2019-04-09T17:37:13.419Z,28.50
2019-04-09T17:39:42.362Z,29.40
2019-04-09T17:42:13.527Z,30.50
2019-04-09T17:44:42.210Z,31.50
2019-04-09T17:47:11.946Z,32.20
2019-04-09T17:49:41.777Z,32.80
2019-04-09T17:52:11.471Z,32.60
2019-04-09T17:54:40.344Z,33.10
2019-04-09T17:57:09.445Z,34.00
2019-04-09T17:59:40.871Z,33.20
2019-04-09T18:02:10.173Z,32.90
2019-04-09T18:04:46.073Z,33.40
2019-04-09T18:07:09.882Z,33.80
2019-04-09T18:09:39.157Z,34.00
2019-04-09T18:12:10.852Z,34.10
2019-04-09T18:14:39.188Z,33.80
2019-04-09T18:17:09.013Z,34.60
2019-04-09T18:19:39.142Z,35.10
2019-04-09T18:22:09.144Z,35.40
2019-04-09T18:24:39.451Z,35.20
2019-04-09T18:27:10.215Z,36.00
2019-04-09T18:29:39.722Z,36.40
2019-04-09T18:32:09.685Z,36.80
2019-04-09T18:34:49.492Z,37.30
2019-04-09T18:37:10.216Z,37.70
2019-04-09T18:39:39.629Z,39.00
2019-04-09T18:42:08.868Z,39.20
2019-04-09T18:44:38.482Z,39.40
2019-04-09T18:47:07.594Z,39.40
2019-04-09T18:49:36.388Z,38.60
2019-04-09T18:52:05.645Z,39.00
2019-04-09T18:54:35.697Z,38.70
2019-04-09T18:57:07.145Z,39.00
2019-04-09T18:59:36.617Z,38.80
2019-04-09T19:02:06.060Z,39.10
2019-04-09T19:04:36.133Z,39.00
2019-04-09T19:07:06.046Z,39.70
2019-04-09T19:09:36.476Z,39.60
2019-04-09T19:12:05.834Z,39.80
2019-04-09T19:14:35.719Z,40.10
2019-04-09T19:17:04.859Z,40.10
2019-04-09T19:19:34.260Z,40.50
2019-04-09T19:22:03.376Z,41.40
2019-04-09T19:24:33.127Z,42.10
2019-04-09T19:27:03.308Z,42.90
2019-04-09T19:29:32.893Z,44.00
2019-04-09T19:32:02.224Z,43.90
2019-04-09T19:34:31.826Z,44.00
2019-04-09T19:37:01.196Z,43.20
2019-04-09T19:39:30.212Z,43.50
2019-04-09T19:42:09.316Z,43.30
2019-04-09T19:44:29.733Z,43.40
2019-04-09T19:47:00.703Z,43.10
2019-04-09T19:49:30.820Z,42.60
2019-04-09T19:51:59.876Z,42.30
2019-04-09T19:54:29.413Z,42.10
2019-04-09T19:56:59.442Z,41.80
2019-04-09T19:59:28.996Z,41.70
2019-04-09T20:01:58.611Z,41.70
2019-04-09T20:04:28.140Z,42.50
2019-04-09T20:06:57.076Z,43.00
2019-04-09T20:09:26.300Z,44.00
2019-04-09T20:11:56.216Z,44.30
2019-04-09T20:14:26.437Z,44.50
2019-04-09T20:16:55.690Z,45.30
2019-04-09T20:19:24.472Z,45.50
2019-04-09T20:21:53.272Z,45.80
2019-04-09T20:24:22.671Z,45.80
2019-04-09T20:26:52.694Z,45.40
2019-04-09T20:29:22.318Z,45.80
2019-04-09T20:31:53.403Z,45.50
2019-04-09T20:34:22.620Z,45.50
2019-04-09T20:36:51.620Z,45.90
2019-04-09T20:39:31.798Z,46.40
2019-04-09T20:41:52.372Z,46.60
2019-04-09T20:44:22.037Z,47.60
2019-04-09T20:46:51.924Z,47.80
2019-04-09T20:49:21.944Z,48.10
2019-04-09T20:51:51.146Z,48.10
2019-04-09T20:54:28.953Z,48.50
2019-04-09T20:56:57.926Z,48.60
2019-04-09T21:00:06.129Z,48.80
2019-04-09T21:02:46.246Z,48.60
2019-04-09T21:05:18.938Z,49.00
2019-04-09T21:07:48.675Z,49.50
2019-04-09T21:10:19.065Z,49.10
2019-04-09T21:12:48.834Z,49.50
2019-04-09T21:15:18.561Z,49.70
2019-04-09T21:17:47.588Z,50.10
2019-04-09T21:20:18.984Z,50.10
2019-04-09T21:22:47.284Z,50.80
2019-04-09T21:25:16.276Z,51.30
2019-04-09T21:27:45.613Z,51.20
2019-04-09T21:30:15.662Z,51.20
2019-04-09T21:32:44.519Z,51.50
2019-04-09T21:35:13.534Z,51.60
2019-04-09T21:37:42.436Z,51.10
2019-04-09T21:40:12.000Z,51.10
2019-04-09T21:42:41.185Z,51.60
2019-04-09T21:45:11.462Z,51.50
2019-04-09T21:47:40.632Z,51.40
2019-04-09T21:50:10.787Z,51.20
2019-04-09T21:52:39.848Z,51.00
2019-04-09T21:55:08.880Z,51.10
2019-04-09T21:57:39.096Z,51.60
2019-04-09T22:00:12.860Z,51.70
2019-04-09T22:02:42.756Z,51.50
2019-04-09T22:05:12.744Z,51.50
2019-04-09T22:07:41.676Z,51.50
2019-04-09T22:10:11.569Z,52.00
2019-04-09T22:12:40.452Z,53.70
2019-04-09T22:15:11.317Z,52.80
2019-04-09T22:17:40.326Z,52.80
2019-04-09T22:20:10.777Z,52.70
2019-04-09T22:22:39.660Z,51.70
2019-04-09T22:25:10.155Z,51.60
2019-04-09T22:27:39.797Z,52.50
2019-04-09T22:30:09.888Z,51.60
2019-04-09T22:32:38.764Z,52.90
2019-04-09T22:35:08.701Z,52.50
2019-04-09T22:37:37.771Z,52.60
2019-04-09T22:40:07.519Z,50.90
2019-04-09T22:42:36.528Z,50.50
2019-04-09T22:45:05.545Z,50.20
2019-04-09T22:47:35.415Z,46.50
2019-04-09T22:50:05.868Z,49.60
2019-04-09T22:52:36.210Z,49.00
2019-04-09T22:55:05.841Z,48.00
2019-04-09T22:57:35.852Z,46.40
2019-04-09T23:00:08.356Z,43.50
2019-04-09T23:02:50.324Z,44.50
2019-04-09T23:05:51.288Z,44.30
2019-04-09T23:08:23.953Z,43.50
2019-04-09T23:11:21.217Z,43.30
2019-04-09T23:13:50.267Z,43.30
2019-04-09T23:16:19.269Z,43.70
2019-04-09T23:18:49.014Z,43.60
2019-04-09T23:21:19.237Z,43.80
2019-04-09T23:23:48.441Z,44.10
2019-04-09T23:26:17.481Z,43.00
2019-04-09T23:28:47.526Z,43.00
2019-04-09T23:31:16.805Z,43.70
2019-04-09T23:33:46.841Z,44.10
2019-04-09T23:36:16.093Z,44.30
2019-04-09T23:38:45.263Z,45.00
2019-04-09T23:41:15.613Z,44.50
2019-04-09T23:43:44.690Z,44.40
2019-04-09T23:46:13.500Z,44.50
2019-04-09T23:48:42.688Z,44.90
2019-04-09T23:51:11.604Z,45.30
2019-04-09T23:53:41.290Z,45.80
2019-04-09T23:56:10.164Z,45.60
2019-04-09T23:58:39.662Z,45.60
